createdAt,value
2019-05-22T00:00:49.771Z,34.80
2019-05-22T00:03:21.992Z,25.27
2019-05-22T00:05:56.273Z,35.00
2019-05-22T00:08:27.546Z,37.15
2019-05-22T00:11:01.665Z,32.53
2019-05-22T00:13:32.696Z,35.10
2019-05-22T00:16:04.241Z,33.97
2019-05-22T00:18:38.470Z,39.30
2019-05-22T00:21:11.700Z,33.33
2019-05-22T00:23:46.577Z,34.13
2019-05-22T00:26:19.827Z,32.98
2019-05-22T00:28:49.578Z,37.17
2019-05-22T00:31:20.250Z,36.77
2019-05-22T00:33:50.349Z,34.70
2019-05-22T00:36:20.599Z,36.47
2019-05-22T00:38:50.691Z,33.88
2019-05-22T00:41:23.355Z,32.67
2019-05-22T00:43:53.048Z,37.27
2019-05-22T00:46:24.670Z,38.87
2019-05-22T00:48:54.847Z,41.20
2019-05-22T00:51:48.071Z,42.48
2019-05-22T00:54:35.158Z,38.63
2019-05-22T00:57:14.490Z,44.60
2019-05-22T00:59:45.901Z,39.55
2019-05-22T01:02:18.824Z,41.20
2019-05-22T01:04:52.194Z,38.50
2019-05-22T01:07:30.558Z,36.70
2019-05-22T01:10:03.714Z,44.93
2019-05-22T01:12:42.401Z,43.23
2019-05-22T01:15:15.266Z,42.60
2019-05-22T01:17:47.093Z,37.47
2019-05-22T01:20:18.959Z,51.10
2019-05-22T01:22:49.933Z,42.85
2019-05-22T01:25:22.621Z,44.42
2019-05-22T01:27:52.720Z,43.70
2019-05-22T01:30:29.140Z,49.10
2019-05-22T01:33:01.777Z,47.67
2019-05-22T01:35:36.681Z,49.97
2019-05-22T01:38:07.074Z,50.00
2019-05-22T01:40:44.861Z,44.48
2019-05-22T01:43:17.601Z,44.50
2019-05-22T01:45:53.741Z,50.08
2019-05-22T01:48:31.563Z,51.48
2019-05-22T01:51:05.365Z,48.50
2019-05-22T01:53:38.399Z,44.23
2019-05-22T01:56:11.381Z,45.83
2019-05-22T01:58:43.605Z,47.93
2019-05-22T02:01:17.564Z,43.13
2019-05-22T02:03:47.857Z,44.65
2019-05-22T02:06:19.292Z,41.75
2019-05-22T02:08:53.534Z,49.40
2019-05-22T02:11:26.157Z,42.50
2019-05-22T02:14:06.180Z,42.93
2019-05-22T02:16:36.643Z,40.90
2019-05-22T02:19:06.323Z,44.10
2019-05-22T02:21:36.051Z,40.65
2019-05-22T02:24:07.357Z,45.25
2019-05-22T02:26:39.293Z,41.90
2019-05-22T02:29:13.973Z,43.10
2019-05-22T02:31:44.432Z,43.07
2019-05-22T02:34:14.882Z,34.60
2019-05-22T02:36:45.817Z,47.75
2019-05-22T02:39:26.996Z,43.93
2019-05-22T02:42:00.444Z,37.03
2019-05-22T02:44:31.417Z,35.27
2019-05-22T02:47:18.258Z,35.17
2019-05-22T02:49:33.959Z,36.27
2019-05-22T02:52:05.440Z,37.60
2019-05-22T02:54:35.946Z,38.40
2019-05-22T02:57:06.944Z,35.80
2019-05-22T02:59:37.400Z,30.50
2019-05-22T03:02:08.467Z,30.07
2019-05-22T03:04:57.551Z,33.97
2019-05-22T03:07:28.573Z,31.07
2019-05-22T03:09:59.304Z,31.37
2019-05-22T03:12:32.316Z,26.43
2019-05-22T03:15:02.735Z,28.83
2019-05-22T03:17:33.420Z,28.73
2019-05-22T03:20:11.320Z,27.80
2019-05-22T03:22:54.637Z,26.27
2019-05-22T03:25:27.999Z,28.45
2019-05-22T03:27:58.029Z,23.95
2019-05-22T03:30:32.424Z,23.57
2019-05-22T03:33:04.052Z,22.90
2019-05-22T03:35:42.382Z,19.30
2019-05-22T03:38:12.269Z,24.53
2019-05-22T03:40:42.894Z,21.73
2019-05-22T03:43:20.754Z,23.47
2019-05-22T03:45:53.027Z,25.70
2019-05-22T03:48:23.877Z,16.60
2019-05-22T03:50:57.084Z,19.27
2019-05-22T03:53:27.338Z,18.17
2019-05-22T03:55:57.978Z,18.82
2019-05-22T03:58:28.824Z,17.82
2019-05-22T04:01:01.215Z,16.83
2019-05-22T04:03:31.560Z,17.23
2019-05-22T04:06:01.290Z,17.87
2019-05-22T04:08:32.997Z,16.55
2019-05-22T04:11:07.343Z,18.05
2019-05-22T04:13:37.738Z,17.90
2019-05-22T04:16:10.781Z,23.13
2019-05-22T04:18:40.942Z,19.83
2019-05-22T04:21:11.206Z,21.33
2019-05-22T04:23:41.154Z,19.83
2019-05-22T04:26:12.620Z,19.00
2019-05-22T04:28:52.766Z,22.77
2019-05-22T04:31:42.726Z,26.57
2019-05-22T04:34:12.932Z,20.10
2019-05-22T04:36:42.601Z,19.20
2019-05-22T04:39:20.256Z,23.87
2019-05-22T04:41:50.366Z,21.80
2019-05-22T04:44:20.246Z,21.13
2019-05-22T04:46:50.371Z,25.17
2019-05-22T04:49:20.451Z,20.80
2019-05-22T04:51:50.280Z,20.17
2019-05-22T04:54:20.035Z,25.75
2019-05-22T04:56:51.539Z,24.57
2019-05-22T04:59:21.514Z,31.57
2019-05-22T05:01:51.529Z,35.83
2019-05-22T05:04:21.448Z,33.90
2019-05-22T05:06:51.614Z,39.03
2019-05-22T05:09:22.780Z,35.00
2019-05-22T05:11:53.643Z,46.88
2019-05-22T05:14:23.405Z,42.77
2019-05-22T05:16:53.224Z,49.87
2019-05-22T05:19:23.559Z,50.90
2019-05-22T05:21:53.683Z,50.30
2019-05-22T05:24:23.540Z,47.80
2019-05-22T05:26:54.791Z,45.15
2019-05-22T05:29:30.272Z,43.33
2019-05-22T05:32:00.745Z,44.67
2019-05-22T05:34:55.593Z,39.97
2019-05-22T05:37:26.268Z,35.07
2019-05-22T05:40:39.303Z,38.60
2019-05-22T05:43:11.766Z,35.97
2019-05-22T05:45:43.469Z,34.93
2019-05-22T05:48:20.381Z,28.87
2019-05-22T05:51:22.120Z,32.40
2019-05-22T05:54:03.114Z,36.50
2019-05-22T05:56:35.632Z,44.65
2019-05-22T05:59:06.774Z,34.73
2019-05-22T06:01:46.377Z,34.95
2019-05-22T06:04:34.051Z,35.90
2019-05-22T06:07:26.723Z,35.78
2019-05-22T06:10:42.332Z,37.63
2019-05-22T06:13:12.787Z,36.48
2019-05-22T06:16:23.969Z,43.70
2019-05-22T06:18:57.131Z,46.93
2019-05-22T06:21:27.435Z,39.07
2019-05-22T06:24:27.611Z,47.40
2019-05-22T06:27:21.871Z,40.63
2019-05-22T06:30:10.561Z,43.73
2019-05-22T06:33:17.840Z,42.33
2019-05-22T06:35:49.798Z,47.58
2019-05-22T06:38:52.394Z,53.90
2019-05-22T06:41:25.161Z,46.60
2019-05-22T06:44:41.950Z,56.37
2019-05-22T06:47:13.966Z,61.50
2019-05-22T06:49:45.375Z,77.22
2019-05-22T06:52:15.912Z,64.80
2019-05-22T06:54:46.595Z,74.30
2019-05-22T06:57:20.382Z,79.72
2019-05-22T07:00:10.837Z,76.47
2019-05-22T07:02:23.649Z,58.73
2019-05-22T07:04:53.632Z,66.00
2019-05-22T07:07:26.773Z,66.60
2019-05-22T07:09:57.514Z,58.30
2019-05-22T07:12:29.205Z,56.47
2019-05-22T07:15:27.294Z,50.40
2019-05-22T07:17:57.652Z,61.63
2019-05-22T07:20:32.436Z,52.80
2019-05-22T07:23:04.127Z,61.70
2019-05-22T07:25:35.322Z,62.03
2019-05-22T07:28:06.867Z,63.78
2019-05-22T07:30:36.777Z,56.30
2019-05-22T07:33:07.241Z,58.80
2019-05-22T07:35:55.985Z,55.93
2019-05-22T07:38:09.086Z,62.78
2019-05-22T07:40:39.651Z,53.92
2019-05-22T07:43:09.505Z,60.15
2019-05-22T07:45:39.791Z,39.33
2019-05-22T07:48:11.218Z,51.17
2019-05-22T07:50:47.982Z,48.42
2019-05-22T07:53:16.875Z,54.17
2019-05-22T07:55:47.876Z,55.60
2019-05-22T07:58:18.623Z,53.70
2019-05-22T08:00:58.968Z,53.47
2019-05-22T08:03:30.674Z,53.53
2019-05-22T08:06:00.566Z,51.73
2019-05-22T08:08:34.125Z,57.05
2019-05-22T08:11:04.917Z,62.00
2019-05-22T08:13:35.647Z,64.63
2019-05-22T08:16:06.246Z,62.10
2019-05-22T08:18:39.927Z,55.33
2019-05-22T08:21:10.670Z,55.75
2019-05-22T08:23:40.795Z,45.00
2019-05-22T08:26:11.446Z,57.50
2019-05-22T08:28:41.584Z,63.03
2019-05-22T08:31:13.023Z,54.93
2019-05-22T08:33:43.451Z,56.30
2019-05-22T08:36:13.893Z,52.97
2019-05-22T08:38:45.480Z,47.23
2019-05-22T08:41:18.915Z,51.27
2019-05-22T08:44:13.582Z,48.10
2019-05-22T08:46:22.069Z,48.23
2019-05-22T08:48:53.119Z,46.42
2019-05-22T08:51:23.131Z,45.00
2019-05-22T08:53:53.202Z,40.97
2019-05-22T08:56:24.442Z,43.43
2019-05-22T08:58:55.194Z,41.98
2019-05-22T09:01:25.495Z,47.50
2019-05-22T09:03:56.627Z,39.50
2019-05-22T09:06:26.571Z,38.83
2019-05-22T09:08:56.247Z,32.03
2019-05-22T09:11:25.932Z,31.07
2019-05-22T09:13:55.659Z,24.40
2019-05-22T09:16:25.450Z,28.23
2019-05-22T09:18:55.850Z,30.92
2019-05-22T09:21:26.534Z,31.33
2019-05-22T09:23:56.329Z,30.90
2019-05-22T09:26:27.453Z,24.10
2019-05-22T09:28:57.128Z,27.10
2019-05-22T09:31:26.795Z,29.10
2019-05-22T09:33:56.461Z,28.73
2019-05-22T09:36:26.119Z,26.42
2019-05-22T09:39:04.205Z,25.07
2019-05-22T09:41:34.170Z,25.62
2019-05-22T09:44:04.239Z,24.82
2019-05-22T09:46:33.966Z,22.90
2019-05-22T09:49:04.281Z,29.13
2019-05-22T09:51:34.282Z,21.97
2019-05-22T09:54:05.144Z,23.67
2019-05-22T09:56:35.259Z,23.17
2019-05-22T09:59:05.361Z,24.10
2019-05-22T10:01:35.029Z,22.87
2019-05-22T10:04:06.009Z,28.07
2019-05-22T10:06:36.048Z,26.20
2019-05-22T10:09:07.373Z,23.03
2019-05-22T10:11:38.029Z,24.82
2019-05-22T10:14:08.842Z,23.23
2019-05-22T10:16:39.281Z,24.53
2019-05-22T10:19:09.608Z,24.40
2019-05-22T10:21:40.220Z,22.73
2019-05-22T10:24:10.319Z,23.23
2019-05-22T10:26:40.629Z,22.20
2019-05-22T10:29:10.402Z,21.07
2019-05-22T10:31:40.144Z,22.65
2019-05-22T10:34:09.887Z,23.30
2019-05-22T10:36:43.086Z,26.57
2019-05-22T10:39:12.086Z,25.10
2019-05-22T10:41:42.011Z,22.90
2019-05-22T10:44:11.778Z,29.70
2019-05-22T10:46:41.881Z,30.17
2019-05-22T10:49:11.722Z,28.00
2019-05-22T10:51:41.671Z,29.23
2019-05-22T10:54:11.483Z,30.83
2019-05-22T10:56:41.157Z,32.08
2019-05-22T10:59:11.007Z,33.63
2019-05-22T11:01:40.936Z,34.63
2019-05-22T11:04:11.457Z,38.73
2019-05-22T11:06:41.192Z,36.33
2019-05-22T11:09:11.835Z,37.60
2019-05-22T11:11:42.752Z,29.82
2019-05-22T11:14:13.340Z,34.17
2019-05-22T11:16:43.176Z,39.70
2019-05-22T11:19:12.925Z,38.83
2019-05-22T11:21:43.450Z,37.00
2019-05-22T11:24:13.478Z,40.00
2019-05-22T11:26:43.795Z,43.53
2019-05-22T11:29:13.915Z,41.87
2019-05-22T11:31:44.252Z,40.03
2019-05-22T11:34:14.329Z,40.53
2019-05-22T11:36:43.995Z,42.77
2019-05-22T11:39:16.846Z,44.20
2019-05-22T11:41:46.665Z,37.95
2019-05-22T11:44:16.785Z,36.63
2019-05-22T11:46:46.544Z,39.73
2019-05-22T11:49:16.564Z,40.53
2019-05-22T11:51:46.810Z,38.47
2019-05-22T11:54:16.568Z,42.53
2019-05-22T11:56:46.525Z,36.30
2019-05-22T11:59:16.692Z,38.13
2019-05-22T12:01:46.608Z,38.35
2019-05-22T12:04:16.847Z,26.80
2019-05-22T12:06:47.407Z,32.50
2019-05-22T12:09:17.046Z,36.03
2019-05-22T12:11:47.659Z,38.80
2019-05-22T12:14:18.417Z,35.83
2019-05-22T12:16:52.923Z,39.17
2019-05-22T12:19:22.185Z,33.33
2019-05-22T12:21:52.188Z,33.50
2019-05-22T12:24:27.447Z,33.97
2019-05-22T12:26:53.312Z,32.70
2019-05-22T12:29:24.514Z,33.80
2019-05-22T12:31:54.384Z,32.10
2019-05-22T12:34:24.710Z,33.80
2019-05-22T12:36:54.792Z,34.38
2019-05-22T12:39:25.355Z,31.47
2019-05-22T12:41:56.314Z,27.27
2019-05-22T12:44:25.981Z,24.93
2019-05-22T12:46:55.836Z,27.43
2019-05-22T12:49:27.377Z,30.92
2019-05-22T12:51:58.166Z,30.17
2019-05-22T12:54:45.297Z,29.30
2019-05-22T12:56:59.924Z,27.25
2019-05-22T12:59:30.431Z,27.55
2019-05-22T13:02:00.433Z,26.68
2019-05-22T13:04:31.047Z,29.50
2019-05-22T13:07:01.276Z,27.30
2019-05-22T13:09:31.550Z,19.48
2019-05-22T13:12:01.242Z,25.03
2019-05-22T13:14:31.008Z,20.13
2019-05-22T13:17:01.524Z,23.30
2019-05-22T13:19:33.226Z,23.23
2019-05-22T13:22:04.757Z,24.40
2019-05-22T13:24:36.799Z,21.67
2019-05-22T13:27:09.857Z,23.03
2019-05-22T13:29:41.625Z,21.97
2019-05-22T13:32:14.058Z,22.33
2019-05-22T13:34:44.181Z,23.60
2019-05-22T13:37:15.034Z,20.75
2019-05-22T13:39:44.982Z,17.57
2019-05-22T13:42:15.949Z,15.43
2019-05-22T13:44:46.007Z,20.70
2019-05-22T13:47:16.288Z,15.03
2019-05-22T13:49:46.385Z,20.17
2019-05-22T13:52:16.404Z,20.13
2019-05-22T13:54:46.492Z,21.70
2019-05-22T13:57:16.679Z,19.07
2019-05-22T13:59:46.538Z,17.52
2019-05-22T14:02:17.263Z,19.83
2019-05-22T14:04:46.929Z,20.50
2019-05-22T14:07:16.938Z,18.33
2019-05-22T14:09:47.147Z,19.87
2019-05-22T14:12:17.067Z,18.42
2019-05-22T14:14:46.836Z,18.67
2019-05-22T14:17:17.711Z,21.10
2019-05-22T14:19:47.481Z,17.37
2019-05-22T14:22:17.394Z,15.93
2019-05-22T14:24:47.554Z,16.80
2019-05-22T14:27:17.441Z,14.37
2019-05-22T14:29:47.237Z,17.00
2019-05-22T14:32:17.971Z,18.37
2019-05-22T14:34:47.618Z,18.83
2019-05-22T14:37:17.555Z,17.17
2019-05-22T14:39:47.823Z,22.40
2019-05-22T14:42:20.667Z,19.10
2019-05-22T14:44:50.834Z,21.73
2019-05-22T14:47:21.256Z,20.12
2019-05-22T14:49:51.046Z,22.50
2019-05-22T14:52:20.903Z,15.37
2019-05-22T14:54:50.902Z,16.93
2019-05-22T14:57:21.181Z,19.87
2019-05-22T14:59:51.189Z,25.43
2019-05-22T15:02:20.973Z,18.73
2019-05-22T15:04:51.239Z,24.98
2019-05-22T15:07:21.136Z,22.53
2019-05-22T15:09:50.877Z,21.43
2019-05-22T15:12:20.646Z,25.20
2019-05-22T15:14:50.630Z,25.15
2019-05-22T15:17:32.190Z,25.37
2019-05-22T15:19:53.131Z,29.10
2019-05-22T15:22:22.950Z,22.47
2019-05-22T15:24:54.505Z,22.27
2019-05-22T15:27:25.551Z,21.03
2019-05-22T15:29:55.825Z,22.23
2019-05-22T15:32:26.294Z,25.00
2019-05-22T15:34:56.512Z,21.87
2019-05-22T15:37:27.473Z,22.30
2019-05-22T15:40:03.222Z,20.55
2019-05-22T15:42:38.824Z,23.90
2019-05-22T15:45:14.288Z,20.88
2019-05-22T15:47:54.644Z,20.43
2019-05-22T15:50:21.653Z,20.63
2019-05-22T15:52:57.060Z,23.00
2019-05-22T15:55:30.072Z,21.52
2019-05-22T15:58:00.828Z,22.33
2019-05-22T16:00:35.722Z,22.67
2019-05-22T16:03:12.633Z,18.52
2019-05-22T16:05:43.780Z,19.97
2019-05-22T16:08:14.820Z,26.33
2019-05-22T16:10:48.158Z,23.17
2019-05-22T16:13:20.092Z,13.55
2019-05-22T16:15:51.826Z,19.00
2019-05-22T16:18:25.381Z,23.27
2019-05-22T16:20:57.063Z,20.25
2019-05-22T16:23:28.494Z,16.35
2019-05-22T16:25:58.413Z,18.03
2019-05-22T16:28:33.238Z,21.93
2019-05-22T16:31:00.944Z,22.13
2019-05-22T16:33:31.259Z,20.03
2019-05-22T16:36:01.490Z,23.67
2019-05-22T16:38:31.827Z,21.97
2019-05-22T16:41:01.755Z,24.90
2019-05-22T16:43:47.972Z,25.67
2019-05-22T16:46:03.163Z,23.87
2019-05-22T16:48:33.496Z,21.90
2019-05-22T16:51:04.266Z,25.62
2019-05-22T16:53:34.329Z,23.18
2019-05-22T16:56:05.240Z,27.50
2019-05-22T16:58:35.870Z,26.30
2019-05-22T17:01:08.611Z,28.57
2019-05-22T17:03:39.252Z,26.50
2019-05-22T17:06:09.079Z,29.10
2019-05-22T17:08:38.911Z,28.33
2019-05-22T17:11:09.747Z,25.37
2019-05-22T17:13:40.546Z,29.67
2019-05-22T17:16:10.457Z,31.97
2019-05-22T17:18:47.719Z,29.10
2019-05-22T17:21:13.028Z,32.42
2019-05-22T17:23:43.291Z,32.10
2019-05-22T17:26:13.886Z,30.10
2019-05-22T17:28:44.683Z,29.67
2019-05-22T17:31:15.126Z,25.03
2019-05-22T17:33:45.266Z,29.70
2019-05-22T17:36:16.770Z,29.73
2019-05-22T17:38:46.939Z,30.37
2019-05-22T17:41:16.846Z,30.37
2019-05-22T17:43:47.536Z,27.20
2019-05-22T17:46:17.952Z,31.10
2019-05-22T17:48:48.453Z,27.20
2019-05-22T17:51:19.674Z,27.90
2019-05-22T17:53:49.495Z,27.87
2019-05-22T17:56:20.016Z,30.03
2019-05-22T17:58:49.684Z,29.10
2019-05-22T18:01:19.679Z,28.90
2019-05-22T18:03:49.588Z,28.47
2019-05-22T18:06:19.623Z,27.60
2019-05-22T18:08:49.529Z,27.40
2019-05-22T18:11:19.672Z,29.63
2019-05-22T18:13:58.565Z,29.77
2019-05-22T18:16:28.660Z,31.85
2019-05-22T18:18:58.611Z,31.80
2019-05-22T18:21:29.741Z,26.40
2019-05-22T18:23:59.739Z,32.63
2019-05-22T18:26:29.929Z,29.30
2019-05-22T18:29:00.634Z,27.83
2019-05-22T18:31:30.529Z,32.08
2019-05-22T18:34:00.336Z,30.77
2019-05-22T18:36:30.009Z,29.37
2019-05-22T18:38:59.736Z,27.83
2019-05-22T18:41:29.484Z,27.30
2019-05-22T18:43:59.649Z,30.97
2019-05-22T18:46:29.834Z,31.07
2019-05-22T18:49:00.007Z,27.80
2019-05-22T18:51:30.440Z,30.62
2019-05-22T18:54:00.749Z,25.87
2019-05-22T18:56:30.415Z,26.83
2019-05-22T18:59:00.589Z,25.77
2019-05-22T19:01:31.185Z,29.53
2019-05-22T19:04:00.953Z,32.10
2019-05-22T19:06:31.108Z,24.52
2019-05-22T19:09:00.904Z,30.55
2019-05-22T19:11:32.671Z,27.00
2019-05-22T19:14:03.478Z,27.75
2019-05-22T19:16:34.434Z,31.50
2019-05-22T19:19:04.338Z,32.43
2019-05-22T19:21:34.213Z,29.27
2019-05-22T19:24:04.129Z,30.20
2019-05-22T19:26:34.011Z,31.83
2019-05-22T19:29:04.112Z,32.38
2019-05-22T19:31:34.530Z,26.40
2019-05-22T19:34:04.483Z,27.97
2019-05-22T19:36:34.505Z,27.47
2019-05-22T19:39:07.998Z,27.07
2019-05-22T19:41:39.018Z,29.40
2019-05-22T19:44:09.358Z,30.00
2019-05-22T19:46:40.638Z,27.23
2019-05-22T19:49:11.017Z,29.83
2019-05-22T19:51:41.935Z,24.35
2019-05-22T19:54:12.191Z,26.42
2019-05-22T19:56:43.955Z,25.23
2019-05-22T19:59:14.410Z,34.40
2019-05-22T20:01:45.977Z,26.30
2019-05-22T20:04:15.923Z,29.77
2019-05-22T20:06:45.633Z,31.90
2019-05-22T20:09:15.795Z,26.70
2019-05-22T20:11:48.133Z,25.95
2019-05-22T20:14:19.027Z,24.37
2019-05-22T20:16:50.191Z,23.27
2019-05-22T20:19:20.268Z,18.55
2019-05-22T20:21:50.396Z,30.33
2019-05-22T20:24:20.499Z,21.80
2019-05-22T20:26:52.038Z,21.03
2019-05-22T20:29:22.334Z,23.12
2019-05-22T20:31:52.550Z,23.00
2019-05-22T20:34:22.468Z,25.20
2019-05-22T20:36:52.807Z,22.13
2019-05-22T20:39:22.459Z,21.27
2019-05-22T20:41:52.271Z,22.30
2019-05-22T20:44:22.759Z,22.90
2019-05-22T20:46:53.271Z,23.67
2019-05-22T20:49:23.488Z,20.03
2019-05-22T20:51:53.588Z,21.70
2019-05-22T20:54:24.695Z,20.83
2019-05-22T20:56:56.831Z,21.35
2019-05-22T20:59:27.567Z,24.27
2019-05-22T21:01:58.347Z,23.57
2019-05-22T21:04:29.733Z,19.67
2019-05-22T21:07:03.138Z,20.97
2019-05-22T21:09:33.585Z,25.35
2019-05-22T21:12:04.885Z,23.03
2019-05-22T21:14:34.626Z,19.80
2019-05-22T21:17:06.136Z,19.80
2019-05-22T21:19:36.195Z,20.80
2019-05-22T21:22:06.472Z,22.25
2019-05-22T21:24:37.178Z,20.05
2019-05-22T21:27:07.589Z,19.43
2019-05-22T21:29:38.072Z,22.77
2019-05-22T21:32:08.322Z,22.15
2019-05-22T21:34:39.155Z,18.43
2019-05-22T21:37:10.702Z,24.10
2019-05-22T21:39:42.090Z,19.07
2019-05-22T21:42:12.086Z,17.20
2019-05-22T21:44:42.071Z,22.37
2019-05-22T21:47:13.740Z,19.07
2019-05-22T21:49:44.233Z,20.27
2019-05-22T21:52:14.333Z,21.12
2019-05-22T21:54:44.354Z,23.83
2019-05-22T21:57:14.883Z,20.70
2019-05-22T21:59:45.022Z,19.83
2019-05-22T22:02:22.783Z,17.97
2019-05-22T22:04:53.324Z,20.27
2019-05-22T22:07:23.397Z,19.17
2019-05-22T22:09:54.335Z,17.53
2019-05-22T22:12:25.267Z,18.73
2019-05-22T22:14:55.607Z,20.02
2019-05-22T22:17:27.244Z,18.50
2019-05-22T22:19:57.082Z,18.53
2019-05-22T22:22:29.696Z,20.47
2019-05-22T22:24:59.736Z,18.73
2019-05-22T22:27:29.520Z,22.93
2019-05-22T22:30:00.160Z,20.90
2019-05-22T22:32:31.477Z,21.90
2019-05-22T22:35:01.217Z,17.23
2019-05-22T22:37:32.456Z,17.55
2019-05-22T22:40:03.129Z,18.90
2019-05-22T22:42:36.797Z,21.73
2019-05-22T22:45:08.535Z,18.90
2019-05-22T22:47:41.673Z,18.97
2019-05-22T22:50:13.030Z,20.33
2019-05-22T22:52:45.032Z,15.50
2019-05-22T22:55:19.070Z,17.80
2019-05-22T22:57:49.714Z,18.65
2019-05-22T23:00:27.035Z,19.60
2019-05-22T23:02:59.187Z,20.00
2019-05-22T23:05:29.023Z,17.20
2019-05-22T23:08:00.525Z,18.77
2019-05-22T23:10:31.288Z,17.20
2019-05-22T23:13:01.288Z,17.40
2019-05-22T23:15:31.864Z,20.20
2019-05-22T23:18:04.194Z,15.48
2019-05-22T23:20:33.838Z,17.27
2019-05-22T23:23:02.154Z,16.53
2019-05-22T23:25:33.479Z,22.30
2019-05-22T23:28:04.655Z,21.53
2019-05-22T23:30:34.785Z,16.57
2019-05-22T23:33:04.774Z,16.67
2019-05-22T23:35:34.889Z,18.97
2019-05-22T23:38:04.690Z,13.43
2019-05-22T23:40:37.277Z,16.43
2019-05-22T23:43:08.625Z,16.63
2019-05-22T23:45:39.733Z,17.57
2019-05-22T23:48:16.759Z,23.40
2019-05-22T23:50:48.303Z,18.57
2019-05-22T23:53:18.693Z,11.78
2019-05-22T23:55:48.584Z,22.20
2019-05-22T23:58:20.024Z,17.37
